• Join FlightAware (Why Join?)
  • Login
  • US Flag 
06:08PM EST


 

Airport Tracker/Info


-or-


 

Live Flight TrackerFlight Track Log ✈ UAL619 ✈ 07-Apr-2013 ✈ KORD - KOMA

Flight Track Log - Related Links

Times and Time Zones

All times are in EDT time to prevent confusion due to time zone crossing. See the UAL619 flight status page for this flight to view local times or setup timezone preferences in your user account.

Time Position Orientation Groundspeed Altitude Reporting Facility
EDT Latitude Longitude Course Direction KTS MPH feet Rate Location/Type
10:39PM 42.0000 -87.9333 261° West 160 184 1,700  Level Chicago TRACON
10:40PM 42.0500 -87.9833 323° Northwest 226 260 3,900 2,700 Climbing Chicago TRACON
10:41PM 42.1167 -88.0333 331° Northwest 271 312 7,200 3,300 Climbing Chicago TRACON
10:42PM 41.9333 -88.2848 270° West  Level FlightAware Approximate
10:42PM 42.1419 -88.0514 332° Northwest 261 300 9,100  Level Chicago Center
10:43PM 41.9173 -88.4133 255° West  Level FlightAware Approximate
10:43PM 42.1297 -88.1494 260° West 272 313 12,200  Level Chicago Center
10:44PM 41.9077 -88.5435 261° West  Level FlightAware Approximate
10:44PM 42.0958 -88.2503 246° West 292 336 13,800  Level Chicago Center
10:45PM 42.0578 -88.3653 246° West 330 380 16,200 2,220 Climbing Chicago Center
10:46PM 42.0197 -88.4839 247° West 344 396 18,400 2,460 Climbing Chicago Center
10:47PM 41.9694 -88.6358 246° West 367 422 21,300 2,460 Climbing Chicago Center
10:48PM 41.9283 -88.7631 247° West 375 432 23,500 1,920 Climbing Chicago Center
10:49PM 41.8936 -88.8978 251° West 381 438 25,300 1,620 Climbing Chicago Center
10:50PM 41.8903 -89.0406 268° West 388 447 26,900 1,740 Climbing Chicago Center
10:51PM 41.8850 -89.1869 267° West 395 455 28,900 1,920 Climbing Chicago Center
10:52PM 41.8794 -89.3306 267° West 389 448 30,900 1,980 Climbing Chicago Center
10:53PM 41.8736 -89.4678 267° West 373 429 33,000 1,500 Climbing Chicago Center
10:54PM 41.8675 -89.6017 267° West 363 418 34,000 1,080 Climbing Chicago Center
10:55PM 41.8617 -89.7672 267° West 372 428 35,300 1,080 Climbing Chicago Center
10:56PM 41.8581 -89.9069 268° West 372 428 36,300 1,080 Climbing Chicago Center
10:57PM 41.8517 -90.0450 266° West 371 427 37,600 780 Climbing Chicago Center
10:58PM 41.8461 -90.1797 267° West 366 421 38,000 180 Climbing Chicago Center
10:59PM 41.8400 -90.3147 267° West 364 419 38,000  Level Chicago Center
11:00PM 41.8342 -90.4508 267° West 368 423 38,000  Level Chicago Center
11:01PM 41.8281 -90.5883 267° West 370 426 38,000  Level Chicago Center
11:02PM 41.8175 -90.7322 264° West 388 447 38,000  Level Chicago Center
11:03PM 41.8111 -90.8694 266° West 374 430 38,000  Level Chicago Center
11:04PM 41.8039 -91.0067 266° West 372 428 38,000  Level Chicago Center
11:05PM 41.7953 -91.1717 266° West 372 428 38,000 -60 Level Chicago Center
11:06PM 41.7878 -91.3086 266° West 371 427 37,900  Descending Chicago Center
11:07PM 41.7806 -91.4428 266° West 366 421 38,000  Climbing Chicago Center
11:08PM 41.7719 -91.5842 265° West 375 432 38,000  Level Chicago Center
11:09PM 41.7644 -91.7267 266° West 383 441 38,000  Level Chicago Center
11:10PM 41.7558 -91.8675 265° West 382 440 38,000  Level Chicago Center
11:11PM 41.7467 -92.0078 265° West 381 438 38,000  Level Chicago Center
11:12PM 41.7383 -92.1503 266° West 384 442 38,000  Level Chicago Center
11:13PM 41.7297 -92.2919 265° West 385 443 38,000  Level Chicago Center
11:14PM 41.7200 -92.4353 265° West 389 448 38,000  Level Chicago Center
11:15PM 41.7106 -92.5775 265° West 386 444 38,000  Level Chicago Center
11:16PM 41.7036 -92.6931 265° West 388 447 38,000 -120 Level Minneapolis Center
11:17PM 41.6931 -92.8386 265° West 379 436 37,800 -600 Descending Minneapolis Center
11:18PM 41.6831 -92.9747 264° West 375 432 36,800 -1,080 Descending Minneapolis Center
11:19PM 41.6722 -93.1317 265° West 363 418 35,700 -1,080 Descending Minneapolis Center
11:20PM 41.6633 -93.2642 265° West 361 415 34,700 -840 Descending Minneapolis Center
11:21PM 41.6525 -93.3992 264° West 367 422 34,000 -360 Descending Minneapolis Center
11:22PM 41.6431 -93.5383 265° West 375 432 34,000  Level Minneapolis Center
11:23PM 41.6331 -93.6761 264° West 376 433 34,000 -480 Level Minneapolis Center
11:24PM 41.6231 -93.8161 265° West 381 438 33,100 -960 Descending Minneapolis Center
11:25PM 41.6111 -93.9603 264° West 390 449 32,100 -1,020 Descending Minneapolis Center
11:26PM 41.6003 -94.1067 264° West 397 457 31,100 -1,080 Descending Minneapolis Center
11:27PM 41.5850 -94.2717 263° West 401 461 30,000 -1,440 Descending Minneapolis Center
11:28PM 41.5736 -94.4167 264° West 394 453 28,200 -2,100 Descending Minneapolis Center
11:29PM 41.5619 -94.5611 264° West 390 449 25,800 -2,400 Descending Minneapolis Center
11:30PM 41.5497 -94.7025 263° West 385 443 23,400 -2,280 Descending Minneapolis Center
11:31PM 41.5383 -94.8400 264° West 374 430 21,200 -2,400 Descending Minneapolis Center
11:32PM 41.5422 -94.9381 273° West 364 419 19,700 -2,220 Descending Minneapolis Center
11:32PM 41.5275 -94.9725 240° Southwest 363 418 19,000 -2,940 Descending Minneapolis Center
11:33PM 41.5303 -95.0622 272° West 360 414 17,100 -3,300 Descending Minneapolis Center
11:33PM 41.5125 -95.1311 251° West 359 413 15,700 -2,460 Descending Minneapolis Center
11:34PM 41.5125 -95.1897 270° West 359 413 14,600 -2,580 Descending Minneapolis Center
11:34PM 41.4658 -95.2453 222° Southwest 360 414 13,100 -2,280 Descending Minneapolis Center
11:35PM 41.4544 -95.2861 250° West 358 412 12,600 -1,020 Descending Minneapolis Center
11:35PM 41.4092 -95.3481 226° Southwest 353 406 12,100 -840 Descending Minneapolis Center
11:36PM 41.3986 -95.3850 249° West 326 375 11,800 -900 Descending Minneapolis Center
11:36PM 41.3594 -95.4392 226° Southwest 331 381 11,200 -1,200 Descending Minneapolis Center
11:37PM 41.3519 -95.4686 251° West 282 325 10,600 -1,680 Descending Minneapolis Center
11:37PM 41.3144 -95.5244 228° Southwest 305 351 9,500 -1,380 Descending Minneapolis Center
11:38PM 41.3058 -95.5575 251° West 284 327 9,200 -840 Descending Minneapolis Center
11:38PM 41.2728 -95.6106 230° Southwest 289 333 8,700 -840 Descending Minneapolis Center
11:39PM 41.2633 -95.6403 247° West 244 281 8,400 -900 Descending Minneapolis Center
11:39PM 41.2406 -95.6803 233° Southwest 248 285 7,800 -1,560 Descending Minneapolis Center
11:40PM 41.2225 -95.7458 250° West 217 250 5,800 -2,100 Descending Minneapolis Center
11:42PM 41.2344 -95.8294 281° West 199 229 3,300 -1,440 Descending Minneapolis Center
11:42PM 41.2519 -95.8025 49° Northeast 180 207 2,900 -480 Descending Minneapolis Center